Time,TemperatureF,DewpointF,PressureIn,WindDirection,WindDirectionDegrees,WindSpeedMPH,WindSpeedGustMPH,Humidity,HourlyPrecipIn,Conditions,Clouds,dailyrainin,SolarRadiationWatts/m^2,SoftwareType,DateUTC
2013-07-31 00:11:00,64.9,63.0,30.08,South,182,0.0,0.0,94,0.00,,,0.03,0,weatherlink.com 1.10,2013-07-31 04:11:00,
2013-07-31 00:26:00,64.8,63.0,30.07,SSW,213,0.0,0.0,93,0.00,,,0.03,0,weatherlink.com 1.10,2013-07-31 04:26:00,
2013-07-31 00:41:00,64.9,63.0,30.07,NE,36,0.0,0.0,92,0.00,,,0.03,0,weatherlink.com 1.10,2013-07-31 04:41:00,
2013-07-31 00:56:00,64.9,62.0,30.07,SSW,200,0.0,0.0,91,0.00,,,0.03,0,weatherlink.com 1.10,2013-07-31 04:56:00,
2013-07-31 01:11:00,64.9,62.0,30.07,SW,222,0.0,0.0,91,0.00,,,0.03,0,weatherlink.com 1.10,2013-07-31 05:11:00,
2013-07-31 01:26:00,65.0,62.0,30.07,South,183,0.0,0.0,91,0.00,,,0.03,0,weatherlink.com 1.10,2013-07-31 05:26:00,
2013-07-31 01:41:00,64.7,62.0,30.07,SE,126,0.0,0.0,92,0.00,,,0.03,0,weatherlink.com 1.10,2013-07-31 05:41:00,
2013-07-31 01:56:00,64.5,63.0,30.07,SSW,201,0.0,0.0,93,0.00,,,0.03,0,weatherlink.com 1.10,2013-07-31 05:56:00,
2013-07-31 02:11:00,64.5,63.0,30.06,SSE,167,0.0,0.0,93,0.00,,,0.03,0,weatherlink.com 1.10,2013-07-31 06:11:00,
2013-07-31 02:26:00,64.5,63.0,30.06,South,183,0.0,0.0,93,0.00,,,0.03,0,weatherlink.com 1.10,2013-07-31 06:26:00,
2013-07-31 02:41:00,64.4,62.0,30.06,North,5,0.0,0.0,93,0.00,,,0.03,0,weatherlink.com 1.10,2013-07-31 06:41:00,
2013-07-31 02:56:00,64.4,62.0,30.05,ESE,105,0.0,0.0,93,0.00,,,0.03,0,weatherlink.com 1.10,2013-07-31 06:56:00,
2013-07-31 03:56:00,64.7,62.0,30.05,SSE,163,0.0,0.0,92,0.00,,,0.00,0,weatherlink.com 1.10,2013-07-31 07:56:00,
2013-07-31 04:26:00,64.9,63.0,30.04,South,180,0.0,0.0,92,0.00,,,0.00,0,weatherlink.com 1.10,2013-07-31 08:26:00,
2013-07-31 04:41:00,64.8,63.0,30.03,South,174,0.0,0.0,93,0.00,,,0.00,0,weatherlink.com 1.10,2013-07-31 08:41:00,
2013-07-31 04:56:00,64.7,63.0,30.03,South,186,0.0,0.0,93,0.00,,,0.00,0,weatherlink.com 1.10,2013-07-31 08:56:00,
2013-07-31 05:11:00,64.7,63.0,30.02,South,186,0.0,0.0,93,0.00,,,0.00,0,weatherlink.com 1.10,2013-07-31 09:11:00,
2013-07-31 05:26:00,64.7,63.0,30.02,South,175,0.0,0.0,94,0.00,,,0.00,0,weatherlink.com 1.10,2013-07-31 09:26:00,
2013-07-31 05:41:00,64.6,63.0,30.03,SSE,159,0.0,0.0,94,0.00,,,0.00,0,weatherlink.com 1.10,2013-07-31 09:41:00,
2013-07-31 05:56:00,64.5,63.0,30.03,South,189,0.0,0.0,94,0.00,,,0.00,0,weatherlink.com 1.10,2013-07-31 09:56:00,
2013-07-31 06:11:00,64.5,63.0,30.03,SSE,161,0.0,0.0,94,0.00,,,0.00,0,weatherlink.com 1.10,2013-07-31 10:11:00,
2013-07-31 06:26:00,64.6,63.0,30.03,SSE,161,0.0,0.0,94,0.00,,,0.00,0,weatherlink.com 1.10,2013-07-31 10:26:00,
2013-07-31 06:41:00,64.6,63.0,30.03,SW,227,0.0,0.0,94,0.00,,,0.00,0,weatherlink.com 1.10,2013-07-31 10:41:00,
2013-07-31 06:56:00,64.6,63.0,30.04,SW,227,0.0,0.0,94,0.00,,,0.00,0,weatherlink.com 1.10,2013-07-31 10:56:00,
2013-07-31 07:11:00,64.5,63.0,30.03,SSW,207,0.0,0.0,94,0.00,,,0.00,18,weatherlink.com 1.10,2013-07-31 11:11:00,
2013-07-31 07:26:00,64.8,63.0,30.04,SSE,165,0.0,0.0,94,0.00,,,0.00,44,weatherlink.com 1.10,2013-07-31 11:26:00,
2013-07-31 07:41:00,64.9,63.0,30.04,SW,219,0.0,0.0,94,0.00,,,0.00,28,weatherlink.com 1.10,2013-07-31 11:41:00,
2013-07-31 07:56:00,65.1,63.0,30.03,SSW,211,0.0,0.0,94,0.00,,,0.00,35,weatherlink.com 1.10,2013-07-31 11:56:00,
2013-07-31 08:11:00,65.2,64.0,30.03,SSW,211,0.0,0.0,94,0.00,,,0.00,47,weatherlink.com 1.10,2013-07-31 12:11:00,
2013-07-31 08:26:00,65.5,64.0,30.03,SW,226,0.0,0.0,94,0.00,,,0.00,70,weatherlink.com 1.10,2013-07-31 12:26:00,
2013-07-31 08:41:00,65.7,64.0,30.03,SSW,209,0.0,0.0,93,0.00,,,0.00,44,weatherlink.com 1.10,2013-07-31 12:41:00,
2013-07-31 08:56:00,65.9,64.0,30.03,SSW,209,0.0,0.0,93,0.00,,,0.00,76,weatherlink.com 1.10,2013-07-31 12:56:00,
2013-07-31 09:11:00,66.2,64.0,30.03,South,173,0.0,0.0,93,0.00,,,0.00,118,weatherlink.com 1.10,2013-07-31 13:11:00,
2013-07-31 09:26:00,66.6,65.0,30.04,SSE,151,0.0,0.0,93,0.00,,,0.00,98,weatherlink.com 1.10,2013-07-31 13:26:00,
2013-07-31 09:41:00,66.9,65.0,30.03,South,189,0.0,0.0,93,0.00,,,0.00,134,weatherlink.com 1.10,2013-07-31 13:41:00,
2013-07-31 09:56:00,67.4,65.0,30.03,SSW,206,0.0,0.0,93,0.00,,,0.00,193,weatherlink.com 1.10,2013-07-31 13:56:00,
2013-07-31 10:12:00,68.5,67.0,30.02,WSW,253,0.0,0.0,93,0.00,,,0.00,262,weatherlink.com 1.10,2013-07-31 14:12:00,
2013-07-31 10:27:00,68.8,66.0,30.02,South,184,0.0,0.0,90,0.00,,,0.00,104,weatherlink.com 1.10,2013-07-31 14:27:00,
2013-07-31 10:42:00,68.8,66.0,30.02,West,259,0.0,0.0,91,0.00,,,0.00,146,weatherlink.com 1.10,2013-07-31 14:42:00,
2013-07-31 10:57:00,69.3,67.0,30.02,WSW,247,0.0,0.0,91,0.00,,,0.00,216,weatherlink.com 1.10,2013-07-31 14:57:00,
2013-07-31 11:12:00,69.5,67.0,30.02,SW,217,0.0,0.0,90,0.00,,,0.00,163,weatherlink.com 1.10,2013-07-31 15:12:00,
2013-07-31 11:27:00,69.6,67.0,30.02,WSW,251,0.0,0.0,90,0.00,,,0.00,167,weatherlink.com 1.10,2013-07-31 15:27:00,
2013-07-31 11:42:00,69.7,67.0,30.02,WSW,246,0.0,0.0,90,0.00,,,0.00,195,weatherlink.com 1.10,2013-07-31 15:42:00,
2013-07-31 11:57:00,69.9,67.0,30.02,WSW,251,0.0,0.0,90,0.00,,,0.00,218,weatherlink.com 1.10,2013-07-31 15:57:00,
2013-07-31 12:12:00,70.2,67.0,30.02,WSW,251,0.0,0.0,89,0.00,,,0.00,181,weatherlink.com 1.10,2013-07-31 16:12:00,
2013-07-31 12:27:00,70.4,67.0,30.02,WSW,250,0.0,0.0,89,0.00,,,0.00,167,weatherlink.com 1.10,2013-07-31 16:27:00,
2013-07-31 12:42:00,70.4,67.0,30.02,WSW,250,0.0,0.0,89,0.00,,,0.00,123,weatherlink.com 1.10,2013-07-31 16:42:00,
2013-07-31 12:57:00,70.4,67.0,30.02,SW,226,0.0,0.0,90,0.00,,,0.00,134,weatherlink.com 1.10,2013-07-31 16:57:00,
2013-07-31 13:12:00,70.4,67.0,30.02,SW,236,0.0,0.0,90,0.00,,,0.00,158,weatherlink.com 1.10,2013-07-31 17:12:00,
2013-07-31 13:27:00,70.4,67.0,30.01,WSW,237,0.0,0.0,90,0.00,,,0.00,142,weatherlink.com 1.10,2013-07-31 17:27:00,
2013-07-31 13:57:00,70.6,67.0,30.01,WSW,252,0.0,0.0,89,0.00,,,0.00,139,weatherlink.com 1.10,2013-07-31 17:57:00,
2013-07-31 14:12:00,70.5,68.0,30.00,WSW,252,0.0,0.0,91,0.00,,,0.00,206,weatherlink.com 1.10,2013-07-31 18:12:00,
2013-07-31 14:27:00,70.5,68.0,30.00,WSW,252,0.0,0.0,90,0.00,,,0.00,163,weatherlink.com 1.10,2013-07-31 18:27:00,
2013-07-31 14:42:00,70.8,68.0,30.00,WSW,252,0.0,0.0,90,0.00,,,0.00,158,weatherlink.com 1.10,2013-07-31 18:42:00,
2013-07-31 14:57:00,71.0,68.0,30.00,South,185,0.0,0.0,90,0.00,,,0.00,174,weatherlink.com 1.10,2013-07-31 18:57:00,
2013-07-31 15:12:00,71.1,68.0,29.99,WSW,246,0.0,0.0,90,0.00,,,0.00,504,weatherlink.com 1.10,2013-07-31 19:12:00,
2013-07-31 15:27:00,72.2,69.0,29.99,WSW,252,0.0,0.0,88,0.00,,,0.00,352,weatherlink.com 1.10,2013-07-31 19:27:00,
2013-07-31 15:42:00,72.9,69.0,29.99,SSW,209,0.0,0.0,88,0.00,,,0.00,359,weatherlink.com 1.10,2013-07-31 19:42:00,
2013-07-31 16:12:00,74.3,70.0,29.98,WSW,246,0.0,0.0,87,0.00,,,0.00,353,weatherlink.com 1.10,2013-07-31 20:12:00,
2013-07-31 16:27:00,73.8,69.0,29.98,WSW,256,0.0,0.0,85,0.00,,,0.00,142,weatherlink.com 1.10,2013-07-31 20:27:00,
2013-07-31 16:42:00,73.8,69.0,29.98,WSW,251,0.0,0.0,86,0.00,,,0.00,513,weatherlink.com 1.10,2013-07-31 20:42:00,
2013-07-31 16:57:00,74.9,70.0,29.97,SSW,209,0.0,0.0,84,0.00,,,0.00,320,weatherlink.com 1.10,2013-07-31 20:57:00,
2013-07-31 17:12:00,75.4,69.0,29.96,WSW,248,0.0,0.0,81,0.00,,,0.00,311,weatherlink.com 1.10,2013-07-31 21:12:00,
2013-07-31 17:27:00,75.7,70.0,29.96,WSW,250,0.0,0.0,83,0.00,,,0.00,387,weatherlink.com 1.10,2013-07-31 21:27:00,
2013-07-31 17:42:00,75.2,70.0,29.96,South,177,0.0,0.0,83,0.00,,,0.00,244,weatherlink.com 1.10,2013-07-31 21:42:00,
2013-07-31 17:57:00,75.1,70.0,29.96,WSW,256,0.0,0.0,83,0.00,,,0.00,67,weatherlink.com 1.10,2013-07-31 21:57:00,
2013-07-31 18:12:00,74.9,70.0,29.95,WSW,254,0.0,0.0,84,0.00,,,0.00,151,weatherlink.com 1.10,2013-07-31 22:12:00,
2013-07-31 18:27:00,75.5,70.0,29.95,SSE,166,0.0,0.0,84,0.00,,,0.00,570,weatherlink.com 1.10,2013-07-31 22:27:00,
2013-07-31 18:42:00,75.4,70.0,29.94,WSW,240,0.0,0.0,82,0.00,,,0.00,146,weatherlink.com 1.10,2013-07-31 22:42:00,
2013-07-31 18:57:00,75.3,70.0,29.94,SW,232,0.0,0.0,83,0.00,,,0.00,174,weatherlink.com 1.10,2013-07-31 22:57:00,
2013-07-31 19:12:00,75.9,70.0,29.94,SW,232,0.0,0.0,82,0.00,,,0.00,278,weatherlink.com 1.10,2013-07-31 23:12:00,
2013-07-31 19:27:00,76.2,70.0,29.94,SW,232,0.0,0.0,82,0.00,,,0.00,84,weatherlink.com 1.10,2013-07-31 23:27:00,
2013-07-31 19:43:00,75.9,71.0,29.93,SW,232,0.0,0.0,84,0.00,,,0.00,63,weatherlink.com 1.10,2013-07-31 23:43:00,
2013-07-31 19:58:00,75.6,71.0,29.93,SW,232,0.0,0.0,84,0.00,,,0.00,56,weatherlink.com 1.10,2013-07-31 23:58:00,
2013-07-31 20:13:00,75.3,71.0,29.93,SW,232,0.0,0.0,85,0.00,,,0.00,32,weatherlink.com 1.10,2013-08-01 00:13:00,
2013-07-31 20:28:00,74.5,70.0,29.93,SW,232,0.0,0.0,86,0.00,,,0.00,28,weatherlink.com 1.10,2013-08-01 00:28:00,
2013-07-31 20:43:00,73.9,70.0,29.93,SW,232,0.0,0.0,87,0.00,,,0.00,19,weatherlink.com 1.10,2013-08-01 00:43:00,
2013-07-31 20:58:00,73.0,69.0,29.93,SW,232,0.0,0.0,88,0.00,,,0.00,0,weatherlink.com 1.10,2013-08-01 00:58:00,
2013-07-31 21:13:00,72.0,69.0,29.94,SW,232,0.0,0.0,89,0.00,,,0.00,0,weatherlink.com 1.10,2013-08-01 01:13:00,
2013-07-31 21:28:00,71.3,69.0,29.94,SW,232,0.0,0.0,91,0.00,,,0.00,0,weatherlink.com 1.10,2013-08-01 01:28:00,
2013-07-31 21:43:00,71.4,69.0,29.94,SW,229,0.0,0.0,91,0.00,,,0.00,0,weatherlink.com 1.10,2013-08-01 01:43:00,
2013-07-31 21:58:00,71.6,69.0,29.95,SW,226,0.0,0.0,91,0.00,,,0.00,0,weatherlink.com 1.10,2013-08-01 01:58:00,
2013-07-31 22:13:00,71.6,69.0,29.95,SW,226,0.0,0.0,91,0.00,,,0.00,0,weatherlink.com 1.10,2013-08-01 02:13:00,
2013-07-31 22:28:00,71.4,69.0,29.95,SW,226,0.0,0.0,91,0.00,,,0.00,0,weatherlink.com 1.10,2013-08-01 02:28:00,
2013-07-31 22:43:00,71.3,69.0,29.95,SW,226,0.0,0.0,92,0.00,,,0.00,0,weatherlink.com 1.10,2013-08-01 02:43:00,
2013-07-31 22:58:00,71.2,69.0,29.96,WSW,249,0.0,0.0,92,0.00,,,0.00,0,weatherlink.com 1.10,2013-08-01 02:58:00,
2013-07-31 23:13:00,71.2,69.0,29.96,WSW,249,0.0,0.0,92,0.00,,,0.00,0,weatherlink.com 1.10,2013-08-01 03:13:00,
2013-07-31 23:28:00,71.0,69.0,29.95,WSW,249,0.0,0.0,92,0.01,,,0.01,0,weatherlink.com 1.10,2013-08-01 03:28:00,
2013-07-31 23:43:00,70.8,69.0,29.96,WSW,249,0.0,0.0,93,0.01,,,0.01,0,weatherlink.com 1.10,2013-08-01 03:43:00,
2013-07-31 23:58:00,70.6,69.0,29.95,WSW,249,0.0,0.0,93,0.02,,,0.02,0,weatherlink.com 1.10,2013-08-01 03:58:00,